createdAt,value
2019-01-15T00:01:14.853Z,2.00
2019-01-15T00:03:42.412Z,1.90
2019-01-15T00:06:09.656Z,2.00
2019-01-15T00:08:37.276Z,2.10
2019-01-15T00:11:04.572Z,2.10
2019-01-15T00:13:32.141Z,2.00
2019-01-15T00:15:59.483Z,2.00
2019-01-15T00:18:26.728Z,2.00
2019-01-15T00:20:54.504Z,1.90
2019-01-15T00:23:21.775Z,2.00
2019-01-15T00:25:49.109Z,2.10
2019-01-15T00:28:16.372Z,2.00
2019-01-15T00:30:43.705Z,2.00
2019-01-15T00:33:10.957Z,2.00
2019-01-15T00:35:38.193Z,2.00
2019-01-15T00:38:05.464Z,1.90
2019-01-15T00:40:32.785Z,2.00
2019-01-15T00:43:00.381Z,2.10
2019-01-15T00:45:27.937Z,2.10
2019-01-15T00:47:55.405Z,2.20
2019-01-15T00:50:22.965Z,2.20
2019-01-15T00:52:50.226Z,2.10
2019-01-15T00:55:17.458Z,2.20
2019-01-15T00:57:45.025Z,2.20
2019-01-15T01:00:18.009Z,2.20
2019-01-15T01:02:45.669Z,2.10
2019-01-15T01:05:13.496Z,2.00
2019-01-15T01:07:40.993Z,2.10
2019-01-15T01:10:09.053Z,2.00
2019-01-15T01:12:36.624Z,2.00
2019-01-15T01:15:05.601Z,2.00
2019-01-15T01:17:32.937Z,2.00
2019-01-15T01:20:00.525Z,2.10
2019-01-15T01:22:27.760Z,2.00
2019-01-15T01:24:55.012Z,2.00
2019-01-15T01:27:22.265Z,2.00
2019-01-15T01:29:49.544Z,2.00
2019-01-15T01:32:16.793Z,2.10
2019-01-15T01:34:44.065Z,2.00
2019-01-15T01:37:11.324Z,1.90
2019-01-15T01:39:38.680Z,1.80
2019-01-15T01:42:06.409Z,1.80
2019-01-15T01:44:33.678Z,1.80
2019-01-15T01:47:01.024Z,1.70
2019-01-15T01:49:28.282Z,1.80
2019-01-15T01:51:55.641Z,1.70
2019-01-15T01:54:22.898Z,1.70
2019-01-15T01:56:50.941Z,1.70
2019-01-15T01:59:18.233Z,1.80
2019-01-15T02:01:45.459Z,1.70
2019-01-15T02:04:12.905Z,1.90
2019-01-15T02:06:40.145Z,1.70
2019-01-15T02:09:09.970Z,1.60
2019-01-15T02:11:37.530Z,1.60
2019-01-15T02:14:04.985Z,1.60
2019-01-15T02:16:32.108Z,1.50
2019-01-15T02:18:59.722Z,1.50
2019-01-15T02:21:27.249Z,1.40
2019-01-15T02:23:54.498Z,1.30
2019-01-15T02:26:21.721Z,1.30
2019-01-15T02:28:48.978Z,1.30
2019-01-15T02:31:16.550Z,1.20
2019-01-15T02:33:44.122Z,1.00
2019-01-15T02:36:11.685Z,0.90
2019-01-15T02:38:38.942Z,0.90
2019-01-15T02:41:06.209Z,0.90
2019-01-15T02:43:33.384Z,0.90
2019-01-15T02:46:01.001Z,0.90
2019-01-15T02:48:28.238Z,1.00
2019-01-15T02:50:55.605Z,0.90
2019-01-15T02:53:23.167Z,0.80
2019-01-15T02:55:50.437Z,0.90
2019-01-15T02:58:17.701Z,0.90
2019-01-15T03:00:45.226Z,0.90
2019-01-15T03:03:12.471Z,0.90
2019-01-15T03:05:39.826Z,0.80
2019-01-15T03:08:07.086Z,0.70
2019-01-15T03:10:34.342Z,0.70
2019-01-15T03:13:01.566Z,0.60
2019-01-15T03:15:29.141Z,0.40
2019-01-15T03:17:56.361Z,0.40
2019-01-15T03:20:23.850Z,0.30
2019-01-15T03:22:51.073Z,0.20
2019-01-15T03:25:18.979Z,0.30
2019-01-15T03:27:46.295Z,0.30
2019-01-15T03:30:16.427Z,0.20
2019-01-15T03:32:44.124Z,0.20
2019-01-15T03:35:11.766Z,0.30
2019-01-15T03:37:39.329Z,0.20
2019-01-15T03:40:11.468Z,0.10
2019-01-15T03:42:38.951Z,0.10
2019-01-15T03:45:06.418Z,0.30
2019-01-15T03:47:34.000Z,0.30
2019-01-15T03:50:01.341Z,0.30
2019-01-15T03:52:28.670Z,0.40
2019-01-15T03:54:55.993Z,0.60
2019-01-15T03:57:23.586Z,0.60
2019-01-15T03:59:50.857Z,0.60
2019-01-15T04:02:18.188Z,0.60
2019-01-15T04:04:45.861Z,0.60
2019-01-15T04:07:13.716Z,0.70
2019-01-15T04:09:41.682Z,0.80
2019-01-15T04:12:09.028Z,0.90
2019-01-15T04:14:36.596Z,1.00
2019-01-15T04:17:03.858Z,1.10
2019-01-15T04:19:31.094Z,1.10
2019-01-15T04:21:58.357Z,1.10
2019-01-15T04:24:25.612Z,1.10
2019-01-15T04:26:53.320Z,1.20
2019-01-15T04:29:20.572Z,1.20
2019-01-15T04:31:48.516Z,1.30
2019-01-15T04:34:15.777Z,1.40
2019-01-15T04:36:43.002Z,1.40
2019-01-15T04:39:10.550Z,1.40
2019-01-15T04:41:37.788Z,1.40
2019-01-15T04:44:05.360Z,1.40
2019-01-15T04:46:32.593Z,1.50
2019-01-15T04:49:00.185Z,1.50
2019-01-15T04:51:27.833Z,1.50
2019-01-15T04:53:55.101Z,1.50
2019-01-15T04:56:22.330Z,1.60
2019-01-15T04:58:49.889Z,1.60
2019-01-15T05:01:17.210Z,1.60
2019-01-15T05:03:44.808Z,1.60
2019-01-15T05:06:12.571Z,1.60
2019-01-15T05:08:40.130Z,1.60
2019-01-15T05:11:07.364Z,1.70
2019-01-15T05:13:34.624Z,1.80
2019-01-15T05:16:02.196Z,1.80
2019-01-15T05:18:29.453Z,1.80
2019-01-15T05:20:57.009Z,1.70
2019-01-15T05:23:24.578Z,1.60
2019-01-15T05:25:51.905Z,1.60
2019-01-15T05:28:19.266Z,1.60
2019-01-15T05:30:46.621Z,1.70
2019-01-15T05:33:13.858Z,1.70
2019-01-15T05:35:41.123Z,1.70
2019-01-15T05:38:08.689Z,1.70
2019-01-15T05:40:36.248Z,1.80
2019-01-15T05:43:03.678Z,1.80
2019-01-15T05:45:36.148Z,1.80
2019-01-15T05:48:07.584Z,1.90
2019-01-15T05:50:50.425Z,1.90
2019-01-15T05:53:18.005Z,1.80
2019-01-15T05:55:45.262Z,1.90
2019-01-15T05:58:12.496Z,1.90
2019-01-15T06:00:39.748Z,2.00
2019-01-15T06:03:06.984Z,2.00
2019-01-15T06:05:34.244Z,1.80
2019-01-15T06:08:01.480Z,1.70
2019-01-15T06:10:29.108Z,1.70
2019-01-15T06:12:56.357Z,1.80
2019-01-15T06:15:23.626Z,1.90
2019-01-15T06:17:50.860Z,2.00
2019-01-15T06:20:18.128Z,2.00
2019-01-15T06:22:45.617Z,2.10
2019-01-15T06:25:13.199Z,2.00
2019-01-15T06:27:40.852Z,2.10
2019-01-15T06:30:11.008Z,2.10
2019-01-15T06:32:38.253Z,2.10
2019-01-15T06:35:05.625Z,2.10
2019-01-15T06:37:32.865Z,2.10
2019-01-15T06:40:00.521Z,2.10
2019-01-15T06:42:27.762Z,2.10
2019-01-15T06:44:55.331Z,2.10
2019-01-15T06:47:23.868Z,2.20
2019-01-15T06:49:51.165Z,2.20
2019-01-15T06:52:18.512Z,2.20
2019-01-15T06:54:45.789Z,2.20
2019-01-15T06:57:13.155Z,2.30
2019-01-15T06:59:40.431Z,2.20
2019-01-15T07:02:07.908Z,2.10
2019-01-15T07:04:35.189Z,2.40
2019-01-15T07:07:02.432Z,2.40
2019-01-15T07:09:29.704Z,2.40
2019-01-15T07:11:57.225Z,2.30
2019-01-15T07:14:24.781Z,2.30
2019-01-15T07:16:52.348Z,2.30
2019-01-15T07:19:19.907Z,2.30
2019-01-15T07:21:47.461Z,2.40
2019-01-15T07:24:15.433Z,2.40
2019-01-15T07:26:42.994Z,2.50
2019-01-15T07:29:10.236Z,2.50
2019-01-15T07:31:37.502Z,2.40
2019-01-15T07:34:04.753Z,2.40
2019-01-15T07:36:32.018Z,2.40
2019-01-15T07:38:59.263Z,2.40
2019-01-15T07:41:26.535Z,2.50
2019-01-15T07:43:54.161Z,2.50
2019-01-15T07:46:21.737Z,2.50
2019-01-15T07:48:48.980Z,2.50
2019-01-15T07:51:16.240Z,2.60
2019-01-15T07:53:43.781Z,2.50
2019-01-15T07:56:11.341Z,2.40
2019-01-15T07:58:38.662Z,2.40
2019-01-15T08:01:07.497Z,2.50
2019-01-15T08:03:35.658Z,2.50
2019-01-15T08:06:03.034Z,2.60
2019-01-15T08:08:30.307Z,2.80
2019-01-15T08:10:57.564Z,2.70
2019-01-15T08:13:24.793Z,2.80
2019-01-15T08:15:52.052Z,2.80
2019-01-15T08:18:19.317Z,2.90
2019-01-15T08:20:46.569Z,2.80
2019-01-15T08:23:13.845Z,2.90
2019-01-15T08:25:41.116Z,3.00
2019-01-15T08:28:08.693Z,2.80
2019-01-15T08:30:36.645Z,2.90
2019-01-15T08:33:04.089Z,2.90
2019-01-15T08:35:33.388Z,2.90
2019-01-15T08:38:00.693Z,3.00
2019-01-15T08:40:28.023Z,3.00
2019-01-15T08:42:55.274Z,3.10
2019-01-15T08:45:22.778Z,3.20
2019-01-15T08:47:51.972Z,3.20
2019-01-15T08:50:21.313Z,3.20
2019-01-15T08:52:48.600Z,3.20
2019-01-15T08:55:15.869Z,3.30
2019-01-15T08:57:43.393Z,3.20
2019-01-15T09:00:11.952Z,3.20
2019-01-15T09:02:39.206Z,3.30
2019-01-15T09:05:06.591Z,3.30
2019-01-15T09:07:34.053Z,3.30
2019-01-15T09:10:01.598Z,3.30
2019-01-15T09:12:28.949Z,3.30
2019-01-15T09:14:56.781Z,3.30
2019-01-15T09:17:24.272Z,3.30
2019-01-15T09:19:51.521Z,3.40
2019-01-15T09:22:18.829Z,3.40
2019-01-15T09:24:46.052Z,3.40
2019-01-15T09:27:13.432Z,3.50
2019-01-15T09:29:41.052Z,3.40
2019-01-15T09:32:08.325Z,3.50
2019-01-15T09:34:35.572Z,3.50
2019-01-15T09:37:04.835Z,3.60
2019-01-15T09:39:32.201Z,3.70
2019-01-15T09:41:59.497Z,3.70
2019-01-15T09:44:33.841Z,3.80
2019-01-15T09:46:56.208Z,3.80
2019-01-15T09:49:23.469Z,3.80
2019-01-15T09:51:52.031Z,3.90
2019-01-15T09:54:19.601Z,3.90
2019-01-15T09:56:47.162Z,3.80
2019-01-15T09:59:14.821Z,3.80
2019-01-15T10:01:42.395Z,3.80
2019-01-15T10:04:09.654Z,3.90
2019-01-15T10:06:37.295Z,3.90
2019-01-15T10:09:08.140Z,4.00
2019-01-15T10:11:35.461Z,4.00
2019-01-15T10:14:02.945Z,4.10
2019-01-15T10:16:30.208Z,4.20
2019-01-15T10:18:57.464Z,4.20
2019-01-15T10:21:24.832Z,4.20
2019-01-15T10:23:52.115Z,4.30
2019-01-15T10:26:19.383Z,4.20
2019-01-15T10:28:46.669Z,4.30
2019-01-15T10:32:08.086Z,4.30
2019-01-15T10:34:37.589Z,4.30
2019-01-15T10:37:04.182Z,4.40
2019-01-15T10:39:31.527Z,4.40
2019-01-15T10:42:00.798Z,4.50
2019-01-15T10:44:28.128Z,4.60
2019-01-15T10:46:55.405Z,4.60
2019-01-15T10:49:22.937Z,4.60
2019-01-15T10:51:50.209Z,4.60
2019-01-15T10:54:17.477Z,4.60
2019-01-15T10:56:44.745Z,4.70
2019-01-15T10:59:11.988Z,4.70
2019-01-15T11:01:39.253Z,4.80
2019-01-15T11:04:06.492Z,4.80
2019-01-15T11:06:34.004Z,4.70
2019-01-15T11:09:01.392Z,4.90
2019-01-15T11:11:28.645Z,5.00
2019-01-15T11:13:56.272Z,4.90
2019-01-15T11:16:23.944Z,4.90
2019-01-15T11:18:51.909Z,5.00
2019-01-15T11:21:19.465Z,4.90
2019-01-15T11:23:46.768Z,4.90
2019-01-15T11:26:14.051Z,5.00
2019-01-15T11:28:41.348Z,5.20
2019-01-15T11:31:08.877Z,5.20
2019-01-15T11:33:36.152Z,5.30
2019-01-15T11:36:03.590Z,5.30
2019-01-15T11:38:30.869Z,5.50
2019-01-15T11:40:58.113Z,5.60
2019-01-15T11:43:25.650Z,5.60
2019-01-15T11:45:52.893Z,5.60
2019-01-15T11:48:20.488Z,5.70
2019-01-15T11:50:47.834Z,5.60
2019-01-15T11:53:15.101Z,5.70
2019-01-15T11:55:42.646Z,5.70
2019-01-15T11:58:10.010Z,5.70
2019-01-15T12:00:44.392Z,5.80
2019-01-15T12:03:29.895Z,5.70
2019-01-15T12:06:23.397Z,5.80
2019-01-15T12:09:12.065Z,5.80
2019-01-15T12:11:50.268Z,5.80
2019-01-15T12:14:43.469Z,5.80
2019-01-15T12:17:32.893Z,5.70
2019-01-15T12:20:20.830Z,5.60
2019-01-15T12:23:06.869Z,5.60
2019-01-15T12:25:52.293Z,5.50
2019-01-15T12:28:39.140Z,5.50
2019-01-15T12:31:35.129Z,5.60
2019-01-15T12:34:20.699Z,5.50
2019-01-15T12:37:07.545Z,5.50
2019-01-15T12:40:12.446Z,5.50
2019-01-15T12:42:59.233Z,5.50
2019-01-15T12:45:58.726Z,5.40
2019-01-15T12:48:54.469Z,5.40
2019-01-15T12:51:44.122Z,5.40
2019-01-15T12:54:22.308Z,5.50
2019-01-15T12:57:09.158Z,5.40
2019-01-15T12:59:54.826Z,5.50
2019-01-15T13:02:39.281Z,5.60
2019-01-15T13:05:29.433Z,5.50
2019-01-15T13:08:20.777Z,5.40
2019-01-15T13:11:07.673Z,5.50
2019-01-15T13:14:09.608Z,5.50
2019-01-15T13:16:55.216Z,5.40
2019-01-15T13:19:40.797Z,5.40
2019-01-15T13:22:46.009Z,5.40
2019-01-15T13:25:47.921Z,5.30
2019-01-15T13:28:43.568Z,5.30
2019-01-15T13:31:36.144Z,5.40
2019-01-15T13:34:26.268Z,5.40
2019-01-15T13:37:24.949Z,5.40
2019-01-15T13:40:14.509Z,5.40
2019-01-15T13:43:00.228Z,5.50
2019-01-15T13:45:45.750Z,5.40
2019-01-15T13:48:29.553Z,5.40
2019-01-15T13:51:19.161Z,5.50
2019-01-15T13:54:13.385Z,5.50
2019-01-15T13:56:59.197Z,5.50
2019-01-15T13:59:49.085Z,5.40
2019-01-15T14:02:39.886Z,5.40
2019-01-15T14:05:33.392Z,5.40
2019-01-15T14:08:18.720Z,5.40
2019-01-15T14:10:55.280Z,5.30
2019-01-15T14:13:31.569Z,5.30
2019-01-15T14:16:11.977Z,5.30
2019-01-15T14:19:13.013Z,5.40
2019-01-15T14:21:59.824Z,5.50
2019-01-15T14:24:46.693Z,5.30
2019-01-15T14:27:32.067Z,5.40
2019-01-15T14:30:17.496Z,5.30
2019-01-15T14:32:59.697Z,5.30
2019-01-15T14:35:37.665Z,5.30
2019-01-15T14:38:17.288Z,5.20
2019-01-15T14:41:02.619Z,5.20
2019-01-15T14:44:04.268Z,5.20
2019-01-15T14:46:54.011Z,5.20
2019-01-15T14:49:49.926Z,5.20
2019-01-15T14:52:39.448Z,5.20
2019-01-15T14:55:23.222Z,5.20
2019-01-15T14:58:12.888Z,5.20
2019-01-15T15:01:05.713Z,5.10
2019-01-15T15:03:39.834Z,5.20
2019-01-15T15:06:20.033Z,5.20
2019-01-15T15:09:09.464Z,5.20
2019-01-15T15:12:08.704Z,5.20
2019-01-15T15:14:55.197Z,5.20
2019-01-15T15:17:40.501Z,5.10
2019-01-15T15:20:31.146Z,5.10
2019-01-15T15:23:30.204Z,5.10
2019-01-15T15:26:14.612Z,5.10
2019-01-15T15:28:55.514Z,5.10
2019-01-15T15:31:54.557Z,5.20
2019-01-15T15:34:31.945Z,5.10
2019-01-15T15:37:17.489Z,5.10
2019-01-15T15:40:16.136Z,5.10
2019-01-15T15:43:11.117Z,5.10
2019-01-15T15:45:57.921Z,5.10
2019-01-15T15:48:48.122Z,5.00
2019-01-15T15:51:46.889Z,5.10
2019-01-15T15:54:32.346Z,5.10
2019-01-15T15:57:15.970Z,5.00
2019-01-15T16:00:01.650Z,5.10
2019-01-15T16:02:51.669Z,5.10
2019-01-15T16:05:47.346Z,5.10
2019-01-15T16:08:36.953Z,5.10
2019-01-15T16:11:26.572Z,5.00
2019-01-15T16:14:22.013Z,5.10
2019-01-15T16:17:11.344Z,5.10
2019-01-15T16:20:03.268Z,5.10
2019-01-15T16:22:56.073Z,5.10
2019-01-15T16:25:58.051Z,5.20
2019-01-15T16:28:40.289Z,5.10
2019-01-15T16:31:25.781Z,5.20
2019-01-15T16:34:12.630Z,5.10
2019-01-15T16:37:02.845Z,5.10
2019-01-15T16:39:49.597Z,5.10
2019-01-15T16:42:28.536Z,5.20
2019-01-15T16:45:28.324Z,5.20
2019-01-15T16:48:30.120Z,5.10
2019-01-15T16:51:14.281Z,4.90
2019-01-15T16:53:59.032Z,5.00
2019-01-15T16:56:42.744Z,5.00
2019-01-15T16:59:23.397Z,5.10
2019-01-15T17:02:09.162Z,5.00
2019-01-15T17:04:54.937Z,5.10
2019-01-15T17:07:47.561Z,5.10
2019-01-15T17:10:33.245Z,5.10
2019-01-15T17:13:18.754Z,5.00
2019-01-15T17:16:00.056Z,5.00
2019-01-15T17:18:41.088Z,5.00
2019-01-15T17:21:34.861Z,5.00
2019-01-15T17:24:21.969Z,4.90
2019-01-15T17:27:09.089Z,4.90
2019-01-15T17:30:07.108Z,4.90
2019-01-15T17:32:42.509Z,5.00
2019-01-15T17:35:18.108Z,5.00
2019-01-15T17:38:03.941Z,5.00
2019-01-15T17:40:49.453Z,5.00
2019-01-15T17:43:48.077Z,5.00
2019-01-15T17:46:22.277Z,5.00
2019-01-15T17:49:08.424Z,5.00
2019-01-15T17:52:03.842Z,5.00
2019-01-15T17:54:49.218Z,5.00
2019-01-15T17:57:34.809Z,5.00
2019-01-15T18:00:27.484Z,5.00
2019-01-15T18:03:11.785Z,5.00
2019-01-15T18:05:57.141Z,5.00
2019-01-15T18:08:43.962Z,5.00
2019-01-15T18:11:33.472Z,5.10
2019-01-15T18:14:18.011Z,5.00
2019-01-15T18:17:04.005Z,5.10
2019-01-15T18:19:56.643Z,5.10
2019-01-15T18:22:42.325Z,5.00
2019-01-15T18:25:47.369Z,5.10
2019-01-15T18:28:32.940Z,5.00
2019-01-15T18:31:25.646Z,5.10
2019-01-15T18:34:12.617Z,5.10
2019-01-15T18:36:58.164Z,5.10
2019-01-15T18:39:43.582Z,5.10
2019-01-15T18:42:39.382Z,5.00
2019-01-15T18:45:30.293Z,5.00
2019-01-15T18:48:16.076Z,5.20
2019-01-15T18:51:12.004Z,5.10
2019-01-15T18:54:07.792Z,5.00
2019-01-15T18:57:06.833Z,5.10
2019-01-15T18:59:52.311Z,5.10
2019-01-15T19:02:38.805Z,5.00
2019-01-15T19:05:16.769Z,5.10
2019-01-15T19:07:54.936Z,5.10
2019-01-15T19:10:45.100Z,5.00
2019-01-15T19:13:24.644Z,5.00
2019-01-15T19:16:27.122Z,4.90
2019-01-15T19:19:15.361Z,4.90
2019-01-15T19:21:59.157Z,4.90
2019-01-15T19:24:44.457Z,4.90
2019-01-15T19:27:36.676Z,4.90
2019-01-15T19:30:24.754Z,4.90
2019-01-15T19:33:17.811Z,4.90
2019-01-15T19:36:04.634Z,5.00
2019-01-15T19:38:50.609Z,4.90
2019-01-15T19:41:40.617Z,4.90
2019-01-15T19:44:26.215Z,5.00
2019-01-15T19:47:11.499Z,4.90
2019-01-15T19:49:54.497Z,4.90
2019-01-15T19:52:49.937Z,4.80
2019-01-15T19:55:42.966Z,5.00
2019-01-15T19:58:23.921Z,4.90
2019-01-15T20:01:19.996Z,4.80
2019-01-15T20:04:04.018Z,4.80
2019-01-15T20:06:57.234Z,4.80
2019-01-15T20:09:44.398Z,4.90
2019-01-15T20:12:28.016Z,4.90
2019-01-15T20:15:32.805Z,4.90
2019-01-15T20:18:20.112Z,4.90
2019-01-15T20:21:06.952Z,4.90
2019-01-15T20:23:54.085Z,4.90
2019-01-15T20:26:32.821Z,4.90
2019-01-15T20:29:18.073Z,4.80
2019-01-15T20:32:01.357Z,4.80
2019-01-15T20:34:51.309Z,4.80
2019-01-15T20:37:37.998Z,4.70
2019-01-15T20:40:15.801Z,4.80
2019-01-15T20:43:02.913Z,4.70
2019-01-15T20:45:40.384Z,4.80
2019-01-15T20:48:34.030Z,4.70
2019-01-15T20:51:07.581Z,4.60
2019-01-15T20:53:58.689Z,4.60
2019-01-15T20:56:44.373Z,4.50
2019-01-15T20:59:31.738Z,4.50
2019-01-15T21:02:22.857Z,4.50
2019-01-15T21:05:15.233Z,4.50
2019-01-15T21:07:57.496Z,4.50
2019-01-15T21:10:43.781Z,4.50
2019-01-15T21:13:30.536Z,4.50
2019-01-15T21:16:17.064Z,4.50
2019-01-15T21:19:04.202Z,4.50
2019-01-15T21:21:53.529Z,4.50
2019-01-15T21:24:38.724Z,4.50
2019-01-15T21:27:44.080Z,4.50
2019-01-15T21:30:34.057Z,4.50
2019-01-15T21:33:12.761Z,4.50
2019-01-15T21:35:59.600Z,4.40
2019-01-15T21:38:45.076Z,4.50
2019-01-15T21:41:27.650Z,4.40
2019-01-15T21:44:12.846Z,4.50
2019-01-15T21:47:08.624Z,4.50
2019-01-15T21:49:47.996Z,4.50
2019-01-15T21:52:38.085Z,4.40
2019-01-15T21:55:21.624Z,4.40
2019-01-15T21:58:22.868Z,4.40
2019-01-15T22:01:25.476Z,4.50
2019-01-15T22:04:21.689Z,4.40
2019-01-15T22:07:10.822Z,4.40
2019-01-15T22:09:58.005Z,4.50
2019-01-15T22:12:55.929Z,4.40
2019-01-15T22:15:34.969Z,4.40
2019-01-15T22:18:18.047Z,4.40
2019-01-15T22:21:04.226Z,4.40
2019-01-15T22:24:05.960Z,4.50
2019-01-15T22:27:11.002Z,4.50
2019-01-15T22:30:15.936Z,4.40
2019-01-15T22:33:14.712Z,4.40
2019-01-15T22:36:02.625Z,4.40
2019-01-15T22:38:48.104Z,4.50
2019-01-15T22:41:33.785Z,4.30
2019-01-15T22:44:12.473Z,4.40
2019-01-15T22:46:57.658Z,4.30
2019-01-15T22:49:53.690Z,4.40
2019-01-15T22:52:48.466Z,4.40
2019-01-15T22:55:35.537Z,4.40
2019-01-15T22:58:28.185Z,4.40
2019-01-15T23:01:15.609Z,4.40
2019-01-15T23:04:05.372Z,4.40
2019-01-15T23:07:10.527Z,4.40
2019-01-15T23:09:50.424Z,4.40
2019-01-15T23:12:34.829Z,4.40
2019-01-15T23:15:20.678Z,4.30
2019-01-15T23:18:16.113Z,4.30
2019-01-15T23:21:14.644Z,4.30
2019-01-15T23:24:03.635Z,4.30
2019-01-15T23:26:54.756Z,4.40
2019-01-15T23:29:56.456Z,4.30
2019-01-15T23:32:41.597Z,4.30
2019-01-15T23:35:27.013Z,4.40
2019-01-15T23:38:06.101Z,4.30
2019-01-15T23:40:52.017Z,4.30
2019-01-15T23:43:37.642Z,4.40
2019-01-15T23:46:36.177Z,4.40
2019-01-15T23:49:25.946Z,4.30
2019-01-15T23:52:07.097Z,4.30
2019-01-15T23:55:10.544Z,4.30
2019-01-15T23:57:58.456Z,4.40
